sensor_id;sensor_type;location;lat;lon;timestamp;pressure;altitude;pressure_sealevel;temperature;humidity
12949;BME280;6539;49.476;8.484;2023-02-28T00:01:35;101525.28;;;4.77;41.89
12949;BME280;6539;49.476;8.484;2023-02-28T00:04:01;101522.09;;;4.75;42.10
12949;BME280;6539;49.476;8.484;2023-02-28T00:06:28;101526.78;;;4.74;42.01
12949;BME280;6539;49.476;8.484;2023-02-28T00:08:54;101529.81;;;4.73;42.37
12949;BME280;6539;49.476;8.484;2023-02-28T00:11:26;101525.88;;;4.70;42.33
12949;BME280;6539;49.476;8.484;2023-02-28T00:13:52;101524.94;;;4.66;42.53
12949;BME280;6539;49.476;8.484;2023-02-28T00:16:21;101523.34;;;4.65;42.54
12949;BME280;6539;49.476;8.484;2023-02-28T00:18:49;101522.44;;;4.61;43.07
12949;BME280;6539;49.476;8.484;2023-02-28T00:21:19;101517.22;;;4.56;42.70
12949;BME280;6539;49.476;8.484;2023-02-28T00:23:47;101518.56;;;4.50;43.15
12949;BME280;6539;49.476;8.484;2023-02-28T00:26:16;101519.81;;;4.52;43.06
12949;BME280;6539;49.476;8.484;2023-02-28T00:28:41;101527.19;;;4.52;43.13
12949;BME280;6539;49.476;8.484;2023-02-28T00:31:11;101519.69;;;4.49;43.18
12949;BME280;6539;49.476;8.484;2023-02-28T00:33:37;101528.84;;;4.44;43.42
12949;BME280;6539;49.476;8.484;2023-02-28T00:36:07;101519.56;;;4.45;43.76
12949;BME280;6539;49.476;8.484;2023-02-28T00:38:36;101523.63;;;4.39;43.52
12949;BME280;6539;49.476;8.484;2023-02-28T00:41:02;101524.44;;;4.40;43.55
12949;BME280;6539;49.476;8.484;2023-02-28T00:43:32;101522.28;;;4.33;44.06
12949;BME280;6539;49.476;8.484;2023-02-28T00:45:58;101529.38;;;4.38;44.57
12949;BME280;6539;49.476;8.484;2023-02-28T00:48:23;101528.56;;;4.25;44.08
12949;BME280;6539;49.476;8.484;2023-02-28T00:50:52;101523.81;;;4.22;44.21
12949;BME280;6539;49.476;8.484;2023-02-28T00:53:20;101527.31;;;4.23;44.24
12949;BME280;6539;49.476;8.484;2023-02-28T00:55:46;101531.81;;;4.19;44.51
12949;BME280;6539;49.476;8.484;2023-02-28T00:58:14;101521.75;;;4.19;44.72
12949;BME280;6539;49.476;8.484;2023-02-28T01:00:42;101534.34;;;4.24;44.55
12949;BME280;6539;49.476;8.484;2023-02-28T01:03:10;101532.88;;;4.26;44.51
12949;BME280;6539;49.476;8.484;2023-02-28T01:05:38;101529.03;;;4.27;44.64
12949;BME280;6539;49.476;8.484;2023-02-28T01:08:04;101523.59;;;4.27;45.11
12949;BME280;6539;49.476;8.484;2023-02-28T01:10:30;101525.06;;;4.25;44.81
12949;BME280;6539;49.476;8.484;2023-02-28T01:12:59;101515.97;;;4.21;45.09
12949;BME280;6539;49.476;8.484;2023-02-28T01:15:24;101526.38;;;4.19;45.28
12949;BME280;6539;49.476;8.484;2023-02-28T01:17:52;101528.00;;;4.20;45.41
12949;BME280;6539;49.476;8.484;2023-02-28T01:20:18;101515.53;;;4.19;45.42
12949;BME280;6539;49.476;8.484;2023-02-28T01:22:44;101521.41;;;4.21;45.12
12949;BME280;6539;49.476;8.484;2023-02-28T01:25:13;101526.19;;;4.24;45.40
12949;BME280;6539;49.476;8.484;2023-02-28T01:27:41;101522.56;;;4.20;45.65
12949;BME280;6539;49.476;8.484;2023-02-28T01:30:11;101530.09;;;4.14;45.87
12949;BME280;6539;49.476;8.484;2023-02-28T01:32:36;101517.84;;;4.08;45.73
12949;BME280;6539;49.476;8.484;2023-02-28T01:35:02;101514.22;;;4.04;45.99
12949;BME280;6539;49.476;8.484;2023-02-28T01:37:30;101517.41;;;4.06;46.18
12949;BME280;6539;49.476;8.484;2023-02-28T01:39:56;101521.25;;;4.05;46.28
12949;BME280;6539;49.476;8.484;2023-02-28T01:42:22;101516.28;;;4.07;45.86
12949;BME280;6539;49.476;8.484;2023-02-28T01:45:31;101517.56;;;4.10;46.23
12949;BME280;6539;49.476;8.484;2023-02-28T01:48:05;101519.47;;;4.09;46.22
12949;BME280;6539;49.476;8.484;2023-02-28T01:50:39;101513.22;;;4.09;46.55
12949;BME280;6539;49.476;8.484;2023-02-28T01:53:12;101514.41;;;3.99;46.31
12949;BME280;6539;49.476;8.484;2023-02-28T01:55:45;101514.88;;;4.01;46.45
12949;BME280;6539;49.476;8.484;2023-02-28T01:58:15;101510.13;;;3.98;46.70
12949;BME280;6539;49.476;8.484;2023-02-28T02:00:43;101513.97;;;3.97;46.65
12949;BME280;6539;49.476;8.484;2023-02-28T02:03:18;101504.44;;;3.91;47.09
12949;BME280;6539;49.476;8.484;2023-02-28T02:05:45;101506.69;;;3.89;46.88
12949;BME280;6539;49.476;8.484;2023-02-28T02:08:20;101505.88;;;3.88;47.26
12949;BME280;6539;49.476;8.484;2023-02-28T02:11:00;101506.56;;;3.85;47.04
12949;BME280;6539;49.476;8.484;2023-02-28T02:19:46;101499.41;;;3.81;47.56
12949;BME280;6539;49.476;8.484;2023-02-28T02:22:58;101496.25;;;3.79;47.70
12949;BME280;6539;49.476;8.484;2023-02-28T02:34:17;101489.28;;;3.69;48.07
12949;BME280;6539;49.476;8.484;2023-02-28T02:37:36;101489.09;;;3.74;48.01
12949;BME280;6539;49.476;8.484;2023-02-28T02:40:37;101493.38;;;3.75;47.96
12949;BME280;6539;49.476;8.484;2023-02-28T02:43:26;101491.00;;;3.74;47.87
12949;BME280;6539;49.476;8.484;2023-02-28T02:46:26;101499.03;;;3.70;48.29
12949;BME280;6539;49.476;8.484;2023-02-28T02:49:05;101492.69;;;3.66;47.90
12949;BME280;6539;49.476;8.484;2023-02-28T02:51:38;101488.69;;;3.64;48.41
12949;BME280;6539;49.476;8.484;2023-02-28T02:54:17;101491.25;;;3.60;48.30
12949;BME280;6539;49.476;8.484;2023-02-28T02:56:50;101494.31;;;3.59;48.26
12949;BME280;6539;49.476;8.484;2023-02-28T02:59:21;101498.81;;;3.55;48.87
12949;BME280;6539;49.476;8.484;2023-02-28T03:01:56;101492.25;;;3.56;48.65
12949;BME280;6539;49.476;8.484;2023-02-28T03:04:34;101498.63;;;3.60;48.70
12949;BME280;6539;49.476;8.484;2023-02-28T03:07:03;101487.91;;;3.63;48.32
12949;BME280;6539;49.476;8.484;2023-02-28T03:09:28;101492.06;;;3.61;48.36
12949;BME280;6539;49.476;8.484;2023-02-28T03:11:57;101489.34;;;3.61;48.56
12949;BME280;6539;49.476;8.484;2023-02-28T03:14:54;101486.06;;;3.55;48.58
12949;BME280;6539;49.476;8.484;2023-02-28T03:23:38;101475.97;;;3.56;48.50
12949;BME280;6539;49.476;8.484;2023-02-28T03:26:21;101480.94;;;3.54;48.98
12949;BME280;6539;49.476;8.484;2023-02-28T03:29:22;101483.66;;;3.54;48.61
12949;BME280;6539;49.476;8.484;2023-02-28T03:32:00;101482.72;;;3.50;49.08
12949;BME280;6539;49.476;8.484;2023-02-28T03:34:35;101480.34;;;3.48;49.35
12949;BME280;6539;49.476;8.484;2023-02-28T03:37:13;101476.53;;;3.49;49.26
12949;BME280;6539;49.476;8.484;2023-02-28T03:39:54;101471.75;;;3.46;49.40
12949;BME280;6539;49.476;8.484;2023-02-28T03:42:27;101479.09;;;3.46;49.31
12949;BME280;6539;49.476;8.484;2023-02-28T03:45:05;101472.56;;;3.47;49.25
12949;BME280;6539;49.476;8.484;2023-02-28T03:47:51;101477.97;;;3.47;49.47
12949;BME280;6539;49.476;8.484;2023-02-28T03:50:31;101479.44;;;3.44;49.43
12949;BME280;6539;49.476;8.484;2023-02-28T03:55:57;101476.25;;;3.42;49.28
12949;BME280;6539;49.476;8.484;2023-02-28T04:01:02;101481.53;;;3.39;49.60
12949;BME280;6539;49.476;8.484;2023-02-28T04:03:38;101476.91;;;3.39;49.83
12949;BME280;6539;49.476;8.484;2023-02-28T04:06:08;101475.19;;;3.35;49.77
12949;BME280;6539;49.476;8.484;2023-02-28T04:08:38;101475.19;;;3.35;49.95
12949;BME280;6539;49.476;8.484;2023-02-28T04:13:45;101473.31;;;3.27;50.37
12949;BME280;6539;49.476;8.484;2023-02-28T04:16:13;101467.09;;;3.26;50.24
12949;BME280;6539;49.476;8.484;2023-02-28T04:18:40;101482.56;;;3.26;50.46
12949;BME280;6539;49.476;8.484;2023-02-28T04:21:06;101477.16;;;3.26;50.35
12949;BME280;6539;49.476;8.484;2023-02-28T04:23:35;101478.75;;;3.27;50.41
12949;BME280;6539;49.476;8.484;2023-02-28T04:26:01;101481.13;;;3.28;50.06
12949;BME280;6539;49.476;8.484;2023-02-28T04:28:29;101481.59;;;3.30;50.32
12949;BME280;6539;49.476;8.484;2023-02-28T04:31:02;101479.69;;;3.31;50.22
12949;BME280;6539;49.476;8.484;2023-02-28T04:33:30;101485.56;;;3.33;50.15
12949;BME280;6539;49.476;8.484;2023-02-28T04:36:07;101482.56;;;3.26;50.54
12949;BME280;6539;49.476;8.484;2023-02-28T04:38:38;101482.44;;;3.22;50.38
12949;BME280;6539;49.476;8.484;2023-02-28T04:41:07;101481.00;;;3.25;50.33
12949;BME280;6539;49.476;8.484;2023-02-28T04:43:32;101479.28;;;3.20;50.37
12949;BME280;6539;49.476;8.484;2023-02-28T04:46:03;101480.53;;;3.23;50.28
12949;BME280;6539;49.476;8.484;2023-02-28T04:48:36;101478.00;;;3.18;50.54
12949;BME280;6539;49.476;8.484;2023-02-28T04:51:06;101480.19;;;3.24;50.33
12949;BME280;6539;49.476;8.484;2023-02-28T04:53:33;101476.22;;;3.22;50.17
12949;BME280;6539;49.476;8.484;2023-02-28T04:55:59;101478.75;;;3.27;50.21
12949;BME280;6539;49.476;8.484;2023-02-28T04:58:25;101483.91;;;3.20;50.68
12949;BME280;6539;49.476;8.484;2023-02-28T05:01:06;101479.59;;;3.19;51.26
12949;BME280;6539;49.476;8.484;2023-02-28T05:03:39;101486.13;;;3.18;50.48
12949;BME280;6539;49.476;8.484;2023-02-28T05:06:10;101492.38;;;3.18;50.64
12949;BME280;6539;49.476;8.484;2023-02-28T05:08:36;101488.38;;;3.16;50.40
12949;BME280;6539;49.476;8.484;2023-02-28T05:11:03;101490.47;;;3.19;50.14
12949;BME280;6539;49.476;8.484;2023-02-28T05:13:29;101496.53;;;3.16;50.53
12949;BME280;6539;49.476;8.484;2023-02-28T05:15:56;101486.94;;;3.18;50.47
12949;BME280;6539;49.476;8.484;2023-02-28T05:18:22;101496.69;;;3.19;50.49
12949;BME280;6539;49.476;8.484;2023-02-28T05:20:52;101492.50;;;3.22;50.37
12949;BME280;6539;49.476;8.484;2023-02-28T05:23:22;101502.41;;;3.18;50.60
12949;BME280;6539;49.476;8.484;2023-02-28T05:25:48;101500.97;;;3.20;50.49
12949;BME280;6539;49.476;8.484;2023-02-28T05:28:18;101502.72;;;3.25;50.33
12949;BME280;6539;49.476;8.484;2023-02-28T05:30:47;101501.91;;;3.24;50.48
12949;BME280;6539;49.476;8.484;2023-02-28T05:33:13;101504.28;;;3.26;50.31
12949;BME280;6539;49.476;8.484;2023-02-28T05:35:41;101491.50;;;3.26;50.12
12949;BME280;6539;49.476;8.484;2023-02-28T05:38:08;101496.63;;;3.28;50.15
12949;BME280;6539;49.476;8.484;2023-02-28T05:40:39;101500.78;;;3.25;50.26
12949;BME280;6539;49.476;8.484;2023-02-28T05:43:10;101501.25;;;3.27;50.30
12949;BME280;6539;49.476;8.484;2023-02-28T05:45:37;101501.38;;;3.31;50.31
12949;BME280;6539;49.476;8.484;2023-02-28T05:48:03;101505.19;;;3.38;49.94
12949;BME280;6539;49.476;8.484;2023-02-28T05:50:30;101508.19;;;3.37;49.90
12949;BME280;6539;49.476;8.484;2023-02-28T05:52:55;101516.22;;;3.33;50.09
12949;BME280;6539;49.476;8.484;2023-02-28T05:55:22;101514.78;;;3.36;49.95
12949;BME280;6539;49.476;8.484;2023-02-28T05:57:51;101510.66;;;3.30;50.20
12949;BME280;6539;49.476;8.484;2023-02-28T06:00:25;101510.00;;;3.33;50.21
12949;BME280;6539;49.476;8.484;2023-02-28T06:02:51;101509.69;;;3.34;49.83
12949;BME280;6539;49.476;8.484;2023-02-28T06:05:24;101512.13;;;3.27;50.11
12949;BME280;6539;49.476;8.484;2023-02-28T06:07:52;101508.25;;;3.28;50.66
12949;BME280;6539;49.476;8.484;2023-02-28T06:10:18;101508.88;;;3.34;50.38
12949;BME280;6539;49.476;8.484;2023-02-28T06:12:45;101516.88;;;3.30;50.19
12949;BME280;6539;49.476;8.484;2023-02-28T06:15:15;101519.28;;;3.32;50.01
12949;BME280;6539;49.476;8.484;2023-02-28T06:17:44;101509.19;;;3.32;50.04
12949;BME280;6539;49.476;8.484;2023-02-28T06:20:11;101517.81;;;3.34;50.11
12949;BME280;6539;49.476;8.484;2023-02-28T06:22:39;101524.19;;;3.38;49.72
12949;BME280;6539;49.476;8.484;2023-02-28T06:25:06;101518.41;;;3.40;49.63
12949;BME280;6539;49.476;8.484;2023-02-28T06:27:33;101528.00;;;3.37;49.86
12949;BME280;6539;49.476;8.484;2023-02-28T06:30:02;101523.25;;;3.34;49.94
12949;BME280;6539;49.476;8.484;2023-02-28T06:32:28;101531.34;;;3.43;49.92
12949;BME280;6539;49.476;8.484;2023-02-28T06:34:53;101532.09;;;3.43;49.56
12949;BME280;6539;49.476;8.484;2023-02-28T06:37:24;101530.00;;;3.49;49.46
12949;BME280;6539;49.476;8.484;2023-02-28T06:39:54;101535.09;;;3.50;49.71
12949;BME280;6539;49.476;8.484;2023-02-28T06:42:23;101531.53;;;3.58;49.44
12949;BME280;6539;49.476;8.484;2023-02-28T06:44:57;101539.47;;;3.63;49.05
12949;BME280;6539;49.476;8.484;2023-02-28T06:47:24;101532.16;;;3.64;49.05
12949;BME280;6539;49.476;8.484;2023-02-28T06:49:50;101542.31;;;3.67;49.15
12949;BME280;6539;49.476;8.484;2023-02-28T06:52:18;101538.50;;;3.68;49.06
12949;BME280;6539;49.476;8.484;2023-02-28T06:54:46;101547.38;;;3.77;48.79
12949;BME280;6539;49.476;8.484;2023-02-28T06:57:12;101541.94;;;3.77;48.87
12949;BME280;6539;49.476;8.484;2023-02-28T06:59:43;101547.38;;;3.77;48.69
12949;BME280;6539;49.476;8.484;2023-02-28T07:02:09;101538.78;;;3.75;48.66
12949;BME280;6539;49.476;8.484;2023-02-28T07:04:40;101546.59;;;3.76;48.91
12949;BME280;6539;49.476;8.484;2023-02-28T07:07:12;101552.81;;;3.77;48.81
12949;BME280;6539;49.476;8.484;2023-02-28T07:09:37;101548.31;;;3.81;48.37
12949;BME280;6539;49.476;8.484;2023-02-28T07:12:03;101548.75;;;3.83;48.48
12949;BME280;6539;49.476;8.484;2023-02-28T07:14:32;101562.00;;;3.84;48.65
12949;BME280;6539;49.476;8.484;2023-02-28T07:16:59;101557.31;;;3.94;48.25
12949;BME280;6539;49.476;8.484;2023-02-28T07:19:30;101560.81;;;3.94;48.28
12949;BME280;6539;49.476;8.484;2023-02-28T07:21:56;101570.81;;;4.02;47.91
12949;BME280;6539;49.476;8.484;2023-02-28T07:24:21;101568.28;;;3.97;48.00
12949;BME280;6539;49.476;8.484;2023-02-28T07:26:49;101568.97;;;3.94;47.93
12949;BME280;6539;49.476;8.484;2023-02-28T07:29:22;101565.25;;;3.99;48.24
12949;BME280;6539;49.476;8.484;2023-02-28T07:31:48;101572.41;;;4.03;48.03
12949;BME280;6539;49.476;8.484;2023-02-28T07:34:19;101574.47;;;4.06;48.16
12949;BME280;6539;49.476;8.484;2023-02-28T07:36:47;101568.91;;;4.03;48.21
12949;BME280;6539;49.476;8.484;2023-02-28T07:39:13;101568.75;;;4.20;47.81
12949;BME280;6539;49.476;8.484;2023-02-28T07:41:39;101562.63;;;4.55;47.26
12949;BME280;6539;49.476;8.484;2023-02-28T07:44:11;101557.94;;;5.37;46.32
12949;BME280;6539;49.476;8.484;2023-02-28T07:46:40;101561.00;;;6.11;43.67
12949;BME280;6539;49.476;8.484;2023-02-28T07:49:05;101561.06;;;6.27;42.42
12949;BME280;6539;49.476;8.484;2023-02-28T07:51:31;101558.09;;;6.32;42.86
12949;BME280;6539;49.476;8.484;2023-02-28T07:53:57;101565.38;;;6.28;42.40
12949;BME280;6539;49.476;8.484;2023-02-28T07:56:23;101571.84;;;6.08;42.89
12949;BME280;6539;49.476;8.484;2023-02-28T07:58:49;101571.97;;;5.99;42.94
12949;BME280;6539;49.476;8.484;2023-02-28T08:01:15;101571.41;;;5.82;42.99
12949;BME280;6539;49.476;8.484;2023-02-28T08:03:43;101568.91;;;5.77;43.18
12949;BME280;6539;49.476;8.484;2023-02-28T08:06:21;101584.59;;;5.68;43.56
12949;BME280;6539;49.476;8.484;2023-02-28T08:08:47;101575.63;;;5.67;43.72
12949;BME280;6539;49.476;8.484;2023-02-28T08:11:14;101575.88;;;5.62;43.31
12949;BME280;6539;49.476;8.484;2023-02-28T08:13:45;101572.44;;;5.65;43.22
12949;BME280;6539;49.476;8.484;2023-02-28T08:16:14;101573.34;;;5.81;43.26
12949;BME280;6539;49.476;8.484;2023-02-28T08:18:43;101574.84;;;6.19;42.54
12949;BME280;6539;49.476;8.484;2023-02-28T08:21:10;101570.97;;;6.20;41.95
12949;BME280;6539;49.476;8.484;2023-02-28T08:23:36;101568.50;;;6.14;42.31
12949;BME280;6539;49.476;8.484;2023-02-28T08:26:05;101566.25;;;6.60;41.76
12949;BME280;6539;49.476;8.484;2023-02-28T08:28:33;101578.22;;;7.33;40.45
12949;BME280;6539;49.476;8.484;2023-02-28T08:31:00;101564.22;;;8.23;38.15
12949;BME280;6539;49.476;8.484;2023-02-28T08:33:31;101561.88;;;9.32;36.53
12949;BME280;6539;49.476;8.484;2023-02-28T08:35:57;101562.84;;;10.28;34.88
12949;BME280;6539;49.476;8.484;2023-02-28T08:38:23;101561.22;;;11.01;33.06
12949;BME280;6539;49.476;8.484;2023-02-28T08:40:50;101553.41;;;11.57;31.79
12949;BME280;6539;49.476;8.484;2023-02-28T08:43:22;101561.00;;;11.71;31.83
12949;BME280;6539;49.476;8.484;2023-02-28T08:45:51;101558.34;;;11.95;31.51
12949;BME280;6539;49.476;8.484;2023-02-28T08:48:19;101559.00;;;12.61;30.13
12949;BME280;6539;49.476;8.484;2023-02-28T08:51:05;101560.59;;;12.90;29.78
12949;BME280;6539;49.476;8.484;2023-02-28T08:53:32;101561.44;;;13.05;29.64
12949;BME280;6539;49.476;8.484;2023-02-28T08:56:11;101555.88;;;13.50;28.92
12949;BME280;6539;49.476;8.484;2023-02-28T08:58:40;101554.19;;;13.92;27.82
12949;BME280;6539;49.476;8.484;2023-02-28T09:01:30;101555.44;;;13.73;27.70
12949;BME280;6539;49.476;8.484;2023-02-28T09:03:58;101560.50;;;13.96;27.75
12949;BME280;6539;49.476;8.484;2023-02-28T09:06:28;101553.31;;;14.19;27.41
12949;BME280;6539;49.476;8.484;2023-02-28T09:08:59;101564.91;;;14.69;26.45
12949;BME280;6539;49.476;8.484;2023-02-28T09:11:27;101563.03;;;14.56;26.38
12949;BME280;6539;49.476;8.484;2023-02-28T09:13:53;101562.66;;;14.50;26.65
12949;BME280;6539;49.476;8.484;2023-02-28T09:16:23;101555.41;;;14.74;26.18
12949;BME280;6539;49.476;8.484;2023-02-28T09:18:49;101557.91;;;14.50;26.45
12949;BME280;6539;49.476;8.484;2023-02-28T09:21:18;101557.81;;;14.65;25.87
12949;BME280;6539;49.476;8.484;2023-02-28T09:23:51;101551.56;;;14.57;26.13
12949;BME280;6539;49.476;8.484;2023-02-28T09:26:22;101561.22;;;14.21;26.33
12949;BME280;6539;49.476;8.484;2023-02-28T09:28:50;101558.00;;;14.33;26.10
12949;BME280;6539;49.476;8.484;2023-02-28T09:31:23;101562.41;;;14.13;26.00
12949;BME280;6539;49.476;8.484;2023-02-28T09:33:52;101551.78;;;14.04;25.95
12949;BME280;6539;49.476;8.484;2023-02-28T09:36:20;101557.03;;;13.63;26.27
12949;BME280;6539;49.476;8.484;2023-02-28T09:38:48;101551.13;;;13.75;26.46
12949;BME280;6539;49.476;8.484;2023-02-28T09:41:24;101541.53;;;14.05;26.04
12949;BME280;6539;49.476;8.484;2023-02-28T09:44:01;101546.66;;;14.03;25.75
12949;BME280;6539;49.476;8.484;2023-02-28T09:46:40;101543.88;;;14.13;25.57
12949;BME280;6539;49.476;8.484;2023-02-28T09:49:42;101545.59;;;13.75;25.98
12949;BME280;6539;49.476;8.484;2023-02-28T09:52:17;101542.38;;;13.95;26.08
12949;BME280;6539;49.476;8.484;2023-02-28T09:54:46;101546.19;;;14.22;25.38
12949;BME280;6539;49.476;8.484;2023-02-28T09:57:36;101548.00;;;13.52;26.30
12949;BME280;6539;49.476;8.484;2023-02-28T10:03:04;101555.91;;;13.40;26.63
12949;BME280;6539;49.476;8.484;2023-02-28T10:05:43;101546.41;;;13.69;25.88
12949;BME280;6539;49.476;8.484;2023-02-28T10:11:17;101537.66;;;13.85;25.95
12949;BME280;6539;49.476;8.484;2023-02-28T10:16:50;101554.28;;;13.67;25.79
12949;BME280;6539;49.476;8.484;2023-02-28T10:19:55;101554.69;;;13.62;26.28
12949;BME280;6539;49.476;8.484;2023-02-28T10:22:38;101547.16;;;13.69;26.39
12949;BME280;6539;49.476;8.484;2023-02-28T10:25:25;101549.22;;;13.27;26.55
12949;BME280;6539;49.476;8.484;2023-02-28T10:30:45;101555.84;;;12.66;27.36
12949;BME280;6539;49.476;8.484;2023-02-28T10:33:25;101547.94;;;12.54;27.02
12949;BME280;6539;49.476;8.484;2023-02-28T10:35:59;101548.50;;;11.84;28.21
12949;BME280;6539;49.476;8.484;2023-02-28T10:38:35;101543.16;;;11.54;28.87
12949;BME280;6539;49.476;8.484;2023-02-28T10:41:10;101547.81;;;11.43;28.87
12949;BME280;6539;49.476;8.484;2023-02-28T10:43:38;101549.72;;;11.35;28.88
12949;BME280;6539;49.476;8.484;2023-02-28T10:46:16;101546.56;;;11.33;28.77
12949;BME280;6539;49.476;8.484;2023-02-28T10:49:03;101548.38;;;11.12;28.79
12949;BME280;6539;49.476;8.484;2023-02-28T10:51:41;101540.47;;;10.63;29.54
12949;BME280;6539;49.476;8.484;2023-02-28T10:54:18;101543.78;;;10.42;30.11
12949;BME280;6539;49.476;8.484;2023-02-28T10:59:41;101530.91;;;11.41;29.38
12949;BME280;6539;49.476;8.484;2023-02-28T11:02:36;101540.66;;;11.89;28.25
12949;BME280;6539;49.476;8.484;2023-02-28T11:05:31;101538.09;;;12.46;27.50
12949;BME280;6539;49.476;8.484;2023-02-28T11:08:13;101535.41;;;12.88;27.13
12949;BME280;6539;49.476;8.484;2023-02-28T11:10:53;101534.53;;;12.35;26.83
12949;BME280;6539;49.476;8.484;2023-02-28T11:13:26;101531.25;;;11.94;27.75
12949;BME280;6539;49.476;8.484;2023-02-28T11:16:05;101537.97;;;12.10;27.54
12949;BME280;6539;49.476;8.484;2023-02-28T11:21:31;101532.47;;;12.07;27.63
12949;BME280;6539;49.476;8.484;2023-02-28T11:24:04;101536.09;;;12.32;27.46
12949;BME280;6539;49.476;8.484;2023-02-28T11:32:19;101525.09;;;12.39;27.69
12949;BME280;6539;49.476;8.484;2023-02-28T11:37:41;101529.69;;;12.03;27.98
12949;BME280;6539;49.476;8.484;2023-02-28T11:43:13;101523.69;;;11.19;29.10
12949;BME280;6539;49.476;8.484;2023-02-28T11:46:20;101512.38;;;11.27;29.23
12949;BME280;6539;49.476;8.484;2023-02-28T11:52:01;101507.97;;;11.77;28.31
12949;BME280;6539;49.476;8.484;2023-02-28T12:00:52;101510.38;;;11.89;28.33
12949;BME280;6539;49.476;8.484;2023-02-28T12:06:50;101515.19;;;12.13;27.79
12949;BME280;6539;49.476;8.484;2023-02-28T12:09:53;101511.53;;;11.81;28.09
12949;BME280;6539;49.476;8.484;2023-02-28T12:18:57;101514.63;;;11.15;29.45
12949;BME280;6539;49.476;8.484;2023-02-28T12:27:17;101512.31;;;10.69;29.67
12949;BME280;6539;49.476;8.484;2023-02-28T12:32:47;101498.28;;;10.82;29.86
12949;BME280;6539;49.476;8.484;2023-02-28T12:35:25;101500.09;;;11.14;29.36
12949;BME280;6539;49.476;8.484;2023-02-28T12:38:09;101490.84;;;11.40;29.12
12949;BME280;6539;49.476;8.484;2023-02-28T12:40:53;101499.16;;;11.47;28.92
12949;BME280;6539;49.476;8.484;2023-02-28T12:43:24;101500.72;;;11.51;28.84
12949;BME280;6539;49.476;8.484;2023-02-28T12:45:57;101491.31;;;11.56;28.63
12949;BME280;6539;49.476;8.484;2023-02-28T12:48:53;101498.53;;;11.75;28.28
12949;BME280;6539;49.476;8.484;2023-02-28T12:51:26;101498.09;;;11.69;28.52
12949;BME280;6539;49.476;8.484;2023-02-28T12:56:53;101489.88;;;11.11;29.24
12949;BME280;6539;49.476;8.484;2023-02-28T12:59:28;101497.69;;;11.06;28.94
12949;BME280;6539;49.476;8.484;2023-02-28T13:05:05;101490.53;;;10.98;29.48
12949;BME280;6539;49.476;8.484;2023-02-28T13:08:18;101495.53;;;10.82;29.92
12949;BME280;6539;49.476;8.484;2023-02-28T13:10:50;101486.16;;;10.86;29.84
12949;BME280;6539;49.476;8.484;2023-02-28T13:13:29;101479.84;;;10.86;30.12
12949;BME280;6539;49.476;8.484;2023-02-28T13:18:44;101474.91;;;11.09;29.89
12949;BME280;6539;49.476;8.484;2023-02-28T13:21:44;101487.25;;;11.29;29.75
12949;BME280;6539;49.476;8.484;2023-02-28T13:24:11;101478.91;;;11.15;29.49
12949;BME280;6539;49.476;8.484;2023-02-28T13:29:40;101474.63;;;11.21;29.33
12949;BME280;6539;49.476;8.484;2023-02-28T13:47:53;101495.31;;;9.87;31.35
12949;BME280;6539;49.476;8.484;2023-02-28T14:06:58;101468.31;;;9.92;31.76
12949;BME280;6539;49.476;8.484;2023-02-28T14:12:54;101475.19;;;9.76;31.99
12949;BME280;6539;49.476;8.484;2023-02-28T14:18:01;101482.72;;;9.53;32.37
12949;BME280;6539;49.476;8.484;2023-02-28T14:20:33;101475.91;;;9.43;32.50
12949;BME280;6539;49.476;8.484;2023-02-28T14:37:56;101483.28;;;8.87;33.53
12949;BME280;6539;49.476;8.484;2023-02-28T14:40:30;101492.34;;;8.65;33.63
12949;BME280;6539;49.476;8.484;2023-02-28T14:43:16;101485.03;;;8.50;33.94
12949;BME280;6539;49.476;8.484;2023-02-28T14:45:49;101488.25;;;8.55;34.03
12949;BME280;6539;49.476;8.484;2023-02-28T14:48:18;101477.25;;;8.52;34.09
12949;BME280;6539;49.476;8.484;2023-02-28T14:50:59;101492.06;;;8.51;34.73
12949;BME280;6539;49.476;8.484;2023-02-28T14:53:37;101489.69;;;8.49;34.50
12949;BME280;6539;49.476;8.484;2023-02-28T14:56:03;101496.03;;;8.53;34.83
12949;BME280;6539;49.476;8.484;2023-02-28T14:58:33;101483.56;;;8.56;34.72
12949;BME280;6539;49.476;8.484;2023-02-28T15:01:10;101495.28;;;8.56;34.65
12949;BME280;6539;49.476;8.484;2023-02-28T15:03:39;101489.38;;;8.54;34.92
12949;BME280;6539;49.476;8.484;2023-02-28T15:06:15;101480.31;;;8.50;34.70
12949;BME280;6539;49.476;8.484;2023-02-28T15:08:42;101480.75;;;8.52;34.61
12949;BME280;6539;49.476;8.484;2023-02-28T15:11:08;101489.09;;;8.59;34.59
12949;BME280;6539;49.476;8.484;2023-02-28T15:13:43;101484.13;;;8.65;34.67
12949;BME280;6539;49.476;8.484;2023-02-28T15:16:30;101489.94;;;8.63;34.71
12949;BME280;6539;49.476;8.484;2023-02-28T15:19:05;101489.81;;;8.56;34.73
12949;BME280;6539;49.476;8.484;2023-02-28T15:21:42;101483.84;;;8.28;34.91
12949;BME280;6539;49.476;8.484;2023-02-28T15:24:28;101491.16;;;8.24;35.30
12949;BME280;6539;49.476;8.484;2023-02-28T15:27:06;101484.47;;;8.21;35.28
12949;BME280;6539;49.476;8.484;2023-02-28T15:29:44;101499.34;;;8.24;35.37
12949;BME280;6539;49.476;8.484;2023-02-28T15:32:32;101493.34;;;8.34;35.22
12949;BME280;6539;49.476;8.484;2023-02-28T15:37:58;101485.38;;;8.25;35.15
12949;BME280;6539;49.476;8.484;2023-02-28T15:40:29;101499.09;;;8.29;35.42
12949;BME280;6539;49.476;8.484;2023-02-28T15:43:17;101489.00;;;8.14;35.83
12949;BME280;6539;49.476;8.484;2023-02-28T15:45:51;101492.13;;;8.12;35.85
12949;BME280;6539;49.476;8.484;2023-02-28T15:48:24;101500.53;;;8.04;36.05
12949;BME280;6539;49.476;8.484;2023-02-28T15:56:27;101500.97;;;7.87;36.36
12949;BME280;6539;49.476;8.484;2023-02-28T15:58:56;101499.66;;;7.81;36.51
12949;BME280;6539;49.476;8.484;2023-02-28T16:01:33;101492.56;;;7.76;36.46
12949;BME280;6539;49.476;8.484;2023-02-28T16:04:06;101494.56;;;7.79;36.61
12949;BME280;6539;49.476;8.484;2023-02-28T16:06:45;101492.91;;;7.75;36.42
12949;BME280;6539;49.476;8.484;2023-02-28T16:09:16;101493.63;;;7.72;36.68
12949;BME280;6539;49.476;8.484;2023-02-28T16:11:48;101496.16;;;7.80;36.57
12949;BME280;6539;49.476;8.484;2023-02-28T16:14:26;101506.34;;;7.83;36.46
12949;BME280;6539;49.476;8.484;2023-02-28T16:17:07;101509.94;;;7.87;36.27